sensor_id;sensor_type;location;lat;lon;timestamp;P1;durP1;ratioP1;P2;durP2;ratioP2
14599;SDS011;7386;45.586;12.854;2023-06-10T00:00:32;36.33;;;30.70;;
14599;SDS011;7386;45.586;12.854;2023-06-10T00:03:00;36.63;;;31.38;;
14599;SDS011;7386;45.586;12.854;2023-06-10T00:05:29;35.72;;;30.40;;
14599;SDS011;7386;45.586;12.854;2023-06-10T00:07:58;38.10;;;33.55;;
14599;SDS011;7386;45.586;12.854;2023-06-10T00:10:28;39.17;;;32.00;;
14599;SDS011;7386;45.586;12.854;2023-06-10T00:12:56;42.63;;;33.67;;
14599;SDS011;7386;45.586;12.854;2023-06-10T00:15:25;35.03;;;30.60;;
14599;SDS011;7386;45.586;12.854;2023-06-10T00:17:53;36.83;;;30.63;;
14599;SDS011;7386;45.586;12.854;2023-06-10T00:20:22;34.60;;;29.65;;
14599;SDS011;7386;45.586;12.854;2023-06-10T00:22:51;31.95;;;28.48;;
14599;SDS011;7386;45.586;12.854;2023-06-10T00:25:19;36.97;;;28.83;;
14599;SDS011;7386;45.586;12.854;2023-06-10T00:27:50;37.63;;;32.05;;
14599;SDS011;7386;45.586;12.854;2023-06-10T00:30:18;33.83;;;28.55;;
14599;SDS011;7386;45.586;12.854;2023-06-10T00:32:47;39.28;;;29.40;;
14599;SDS011;7386;45.586;12.854;2023-06-10T00:35:16;33.67;;;28.65;;
14599;SDS011;7386;45.586;12.854;2023-06-10T00:37:44;32.60;;;29.10;;
14599;SDS011;7386;45.586;12.854;2023-06-10T00:40:13;35.05;;;27.65;;
14599;SDS011;7386;45.586;12.854;2023-06-10T00:42:41;34.42;;;28.33;;
14599;SDS011;7386;45.586;12.854;2023-06-10T00:45:11;31.42;;;27.52;;
14599;SDS011;7386;45.586;12.854;2023-06-10T00:47:40;29.10;;;25.35;;
14599;SDS011;7386;45.586;12.854;2023-06-10T00:50:08;31.35;;;25.55;;
14599;SDS011;7386;45.586;12.854;2023-06-10T00:52:37;28.48;;;24.27;;
14599;SDS011;7386;45.586;12.854;2023-06-10T00:55:06;29.70;;;23.75;;
14599;SDS011;7386;45.586;12.854;2023-06-10T00:57:36;29.63;;;25.05;;
14599;SDS011;7386;45.586;12.854;2023-06-10T01:00:05;29.65;;;25.55;;
14599;SDS011;7386;45.586;12.854;2023-06-10T01:02:36;28.30;;;24.98;;
14599;SDS011;7386;45.586;12.854;2023-06-10T01:05:05;27.95;;;23.75;;
14599;SDS011;7386;45.586;12.854;2023-06-10T01:07:36;26.75;;;23.85;;
14599;SDS011;7386;45.586;12.854;2023-06-10T01:10:11;28.33;;;24.50;;
14599;SDS011;7386;45.586;12.854;2023-06-10T01:12:43;25.42;;;22.48;;
14599;SDS011;7386;45.586;12.854;2023-06-10T01:15:15;26.10;;;22.40;;
14599;SDS011;7386;45.586;12.854;2023-06-10T01:17:56;26.10;;;22.33;;
14599;SDS011;7386;45.586;12.854;2023-06-10T01:20:25;25.27;;;22.25;;
14599;SDS011;7386;45.586;12.854;2023-06-10T01:22:56;26.73;;;22.30;;
14599;SDS011;7386;45.586;12.854;2023-06-10T01:25:25;24.83;;;21.55;;
14599;SDS011;7386;45.586;12.854;2023-06-10T01:27:58;25.13;;;21.25;;
14599;SDS011;7386;45.586;12.854;2023-06-10T01:30:29;26.20;;;21.73;;
14599;SDS011;7386;45.586;12.854;2023-06-10T01:32:59;23.15;;;20.55;;
14599;SDS011;7386;45.586;12.854;2023-06-10T01:35:30;23.95;;;21.08;;
14599;SDS011;7386;45.586;12.854;2023-06-10T01:38:00;20.67;;;18.48;;
14599;SDS011;7386;45.586;12.854;2023-06-10T01:40:29;23.73;;;19.35;;
14599;SDS011;7386;45.586;12.854;2023-06-10T01:42:58;22.40;;;19.88;;
14599;SDS011;7386;45.586;12.854;2023-06-10T01:45:27;25.02;;;21.67;;
14599;SDS011;7386;45.586;12.854;2023-06-10T01:47:55;24.33;;;21.67;;
14599;SDS011;7386;45.586;12.854;2023-06-10T01:50:24;25.98;;;22.58;;
14599;SDS011;7386;45.586;12.854;2023-06-10T01:52:52;27.95;;;22.58;;
14599;SDS011;7386;45.586;12.854;2023-06-10T01:55:22;24.73;;;21.88;;
14599;SDS011;7386;45.586;12.854;2023-06-10T01:57:50;24.45;;;21.38;;
14599;SDS011;7386;45.586;12.854;2023-06-10T02:00:19;22.38;;;19.98;;
14599;SDS011;7386;45.586;12.854;2023-06-10T02:02:47;21.38;;;18.60;;
14599;SDS011;7386;45.586;12.854;2023-06-10T02:05:16;19.30;;;17.13;;
14599;SDS011;7386;45.586;12.854;2023-06-10T02:07:44;19.70;;;17.60;;
14599;SDS011;7386;45.586;12.854;2023-06-10T02:10:13;18.20;;;16.30;;
14599;SDS011;7386;45.586;12.854;2023-06-10T02:12:43;20.75;;;18.52;;
14599;SDS011;7386;45.586;12.854;2023-06-10T02:15:11;20.67;;;18.48;;
14599;SDS011;7386;45.586;12.854;2023-06-10T02:17:40;18.40;;;16.50;;
14599;SDS011;7386;45.586;12.854;2023-06-10T02:20:11;21.75;;;18.02;;
14599;SDS011;7386;45.586;12.854;2023-06-10T02:22:39;26.92;;;22.33;;
14599;SDS011;7386;45.586;12.854;2023-06-10T02:25:08;26.98;;;23.95;;
14599;SDS011;7386;45.586;12.854;2023-06-10T02:27:37;28.23;;;23.38;;
14599;SDS011;7386;45.586;12.854;2023-06-10T02:30:08;34.42;;;28.40;;
14599;SDS011;7386;45.586;12.854;2023-06-10T02:32:37;31.80;;;28.30;;
14599;SDS011;7386;45.586;12.854;2023-06-10T02:35:06;32.75;;;27.05;;
14599;SDS011;7386;45.586;12.854;2023-06-10T02:37:35;34.58;;;29.00;;
14599;SDS011;7386;45.586;12.854;2023-06-10T02:40:04;40.05;;;33.25;;
14599;SDS011;7386;45.586;12.854;2023-06-10T02:42:32;38.85;;;32.97;;
14599;SDS011;7386;45.586;12.854;2023-06-10T02:45:01;36.60;;;31.42;;
14599;SDS011;7386;45.586;12.854;2023-06-10T02:47:31;33.22;;;28.90;;
14599;SDS011;7386;45.586;12.854;2023-06-10T02:49:59;35.30;;;29.58;;
14599;SDS011;7386;45.586;12.854;2023-06-10T02:52:28;34.03;;;27.77;;
14599;SDS011;7386;45.586;12.854;2023-06-10T02:54:56;32.00;;;27.20;;
14599;SDS011;7386;45.586;12.854;2023-06-10T02:57:25;31.92;;;27.80;;
14599;SDS011;7386;45.586;12.854;2023-06-10T02:59:53;36.33;;;29.67;;
14599;SDS011;7386;45.586;12.854;2023-06-10T03:02:22;35.05;;;28.95;;
14599;SDS011;7386;45.586;12.854;2023-06-10T03:04:56;36.58;;;28.25;;
14599;SDS011;7386;45.586;12.854;2023-06-10T03:07:24;35.78;;;30.08;;
14599;SDS011;7386;45.586;12.854;2023-06-10T03:09:53;43.22;;;34.03;;
14599;SDS011;7386;45.586;12.854;2023-06-10T03:12:21;40.17;;;33.60;;
14599;SDS011;7386;45.586;12.854;2023-06-10T03:14:50;44.58;;;35.88;;
14599;SDS011;7386;45.586;12.854;2023-06-10T03:17:18;40.85;;;34.25;;
14599;SDS011;7386;45.586;12.854;2023-06-10T03:19:47;46.63;;;37.47;;
14599;SDS011;7386;45.586;12.854;2023-06-10T03:22:17;41.38;;;34.83;;
14599;SDS011;7386;45.586;12.854;2023-06-10T03:24:46;47.13;;;38.70;;
14599;SDS011;7386;45.586;12.854;2023-06-10T03:27:16;46.78;;;38.55;;
14599;SDS011;7386;45.586;12.854;2023-06-10T03:29:45;42.25;;;36.13;;
14599;SDS011;7386;45.586;12.854;2023-06-10T03:32:13;44.75;;;37.28;;
14599;SDS011;7386;45.586;12.854;2023-06-10T03:34:42;45.38;;;38.03;;
14599;SDS011;7386;45.586;12.854;2023-06-10T03:37:14;46.78;;;38.03;;
14599;SDS011;7386;45.586;12.854;2023-06-10T03:39:44;46.42;;;38.42;;
14599;SDS011;7386;45.586;12.854;2023-06-10T03:42:12;45.25;;;36.70;;
14599;SDS011;7386;45.586;12.854;2023-06-10T03:44:41;44.17;;;34.92;;
14599;SDS011;7386;45.586;12.854;2023-06-10T03:47:09;45.65;;;36.15;;
14599;SDS011;7386;45.586;12.854;2023-06-10T03:49:39;42.65;;;35.42;;
14599;SDS011;7386;45.586;12.854;2023-06-10T03:52:07;45.83;;;37.65;;
14599;SDS011;7386;45.586;12.854;2023-06-10T03:54:36;48.08;;;38.20;;
14599;SDS011;7386;45.586;12.854;2023-06-10T03:57:06;48.30;;;38.53;;
14599;SDS011;7386;45.586;12.854;2023-06-10T03:59:34;44.83;;;36.53;;
14599;SDS011;7386;45.586;12.854;2023-06-10T04:02:03;46.58;;;36.63;;
14599;SDS011;7386;45.586;12.854;2023-06-10T04:04:33;44.33;;;36.35;;
14599;SDS011;7386;45.586;12.854;2023-06-10T04:07:02;46.53;;;38.28;;
14599;SDS011;7386;45.586;12.854;2023-06-10T04:09:31;45.42;;;36.85;;
14599;SDS011;7386;45.586;12.854;2023-06-10T04:12:00;45.90;;;37.30;;
14599;SDS011;7386;45.586;12.854;2023-06-10T04:14:30;44.83;;;32.58;;
14599;SDS011;7386;45.586;12.854;2023-06-10T04:16:59;39.22;;;32.13;;
14599;SDS011;7386;45.586;12.854;2023-06-10T04:19:28;38.35;;;32.97;;
14599;SDS011;7386;45.586;12.854;2023-06-10T04:21:57;40.70;;;32.30;;
14599;SDS011;7386;45.586;12.854;2023-06-10T04:24:26;43.53;;;35.95;;
14599;SDS011;7386;45.586;12.854;2023-06-10T04:26:54;37.95;;;32.30;;
14599;SDS011;7386;45.586;12.854;2023-06-10T04:29:23;40.85;;;32.88;;
14599;SDS011;7386;45.586;12.854;2023-06-10T04:31:53;37.42;;;32.30;;
14599;SDS011;7386;45.586;12.854;2023-06-10T04:34:21;36.00;;;30.45;;
14599;SDS011;7386;45.586;12.854;2023-06-10T04:36:52;37.10;;;29.35;;
14599;SDS011;7386;45.586;12.854;2023-06-10T04:39:20;34.88;;;29.42;;
14599;SDS011;7386;45.586;12.854;2023-06-10T04:41:49;32.40;;;28.90;;
14599;SDS011;7386;45.586;12.854;2023-06-10T04:44:17;38.33;;;30.55;;
14599;SDS011;7386;45.586;12.854;2023-06-10T04:46:46;34.63;;;30.42;;
14599;SDS011;7386;45.586;12.854;2023-06-10T04:49:16;33.33;;;27.70;;
14599;SDS011;7386;45.586;12.854;2023-06-10T04:51:45;31.80;;;27.60;;
14599;SDS011;7386;45.586;12.854;2023-06-10T04:54:13;33.65;;;28.67;;
14599;SDS011;7386;45.586;12.854;2023-06-10T04:56:42;30.60;;;26.17;;
14599;SDS011;7386;45.586;12.854;2023-06-10T04:59:10;29.45;;;25.00;;
14599;SDS011;7386;45.586;12.854;2023-06-10T05:01:40;34.67;;;27.45;;
14599;SDS011;7386;45.586;12.854;2023-06-10T05:04:09;33.22;;;27.50;;
14599;SDS011;7386;45.586;12.854;2023-06-10T05:06:39;32.58;;;27.48;;
14599;SDS011;7386;45.586;12.854;2023-06-10T05:09:07;30.73;;;27.40;;
14599;SDS011;7386;45.586;12.854;2023-06-10T05:11:36;30.67;;;27.02;;
14599;SDS011;7386;45.586;12.854;2023-06-10T05:14:04;26.63;;;23.85;;
14599;SDS011;7386;45.586;12.854;2023-06-10T05:16:33;27.33;;;24.08;;
14599;SDS011;7386;45.586;12.854;2023-06-10T05:19:02;26.80;;;23.33;;
14599;SDS011;7386;45.586;12.854;2023-06-10T05:21:33;27.85;;;24.50;;
14599;SDS011;7386;45.586;12.854;2023-06-10T05:24:04;29.48;;;26.13;;
14599;SDS011;7386;45.586;12.854;2023-06-10T05:26:32;28.48;;;25.00;;
14599;SDS011;7386;45.586;12.854;2023-06-10T05:29:03;28.90;;;25.90;;
14599;SDS011;7386;45.586;12.854;2023-06-10T05:31:32;30.15;;;25.23;;
14599;SDS011;7386;45.586;12.854;2023-06-10T05:34:00;28.40;;;24.98;;
14599;SDS011;7386;45.586;12.854;2023-06-10T05:36:29;27.63;;;23.83;;
14599;SDS011;7386;45.586;12.854;2023-06-10T05:38:58;26.85;;;23.77;;
14599;SDS011;7386;45.586;12.854;2023-06-10T05:41:28;25.90;;;23.13;;
14599;SDS011;7386;45.586;12.854;2023-06-10T05:43:57;27.13;;;23.65;;
14599;SDS011;7386;45.586;12.854;2023-06-10T05:46:25;25.83;;;23.10;;
14599;SDS011;7386;45.586;12.854;2023-06-10T05:48:54;25.13;;;22.35;;
14599;SDS011;7386;45.586;12.854;2023-06-10T05:51:22;28.45;;;22.88;;
14599;SDS011;7386;45.586;12.854;2023-06-10T05:53:51;24.30;;;21.70;;
14599;SDS011;7386;45.586;12.854;2023-06-10T05:56:20;27.23;;;22.75;;
14599;SDS011;7386;45.586;12.854;2023-06-10T05:58:50;23.85;;;21.45;;
14599;SDS011;7386;45.586;12.854;2023-06-10T06:01:19;23.20;;;20.70;;
14599;SDS011;7386;45.586;12.854;2023-06-10T06:03:47;21.33;;;19.10;;
14599;SDS011;7386;45.586;12.854;2023-06-10T06:06:16;21.67;;;19.30;;
14599;SDS011;7386;45.586;12.854;2023-06-10T06:08:46;21.23;;;18.48;;
14599;SDS011;7386;45.586;12.854;2023-06-10T06:11:15;20.40;;;18.20;;
14599;SDS011;7386;45.586;12.854;2023-06-10T06:13:44;19.42;;;17.17;;
14599;SDS011;7386;45.586;12.854;2023-06-10T06:16:19;17.30;;;15.60;;
14599;SDS011;7386;45.586;12.854;2023-06-10T06:18:48;15.82;;;14.23;;
14599;SDS011;7386;45.586;12.854;2023-06-10T06:21:16;16.67;;;14.93;;
14599;SDS011;7386;45.586;12.854;2023-06-10T06:23:45;19.80;;;17.50;;
14599;SDS011;7386;45.586;12.854;2023-06-10T06:26:14;16.85;;;15.05;;
14599;SDS011;7386;45.586;12.854;2023-06-10T06:28:42;17.25;;;14.50;;
14599;SDS011;7386;45.586;12.854;2023-06-10T06:31:11;16.35;;;14.65;;
14599;SDS011;7386;45.586;12.854;2023-06-10T06:33:40;15.48;;;13.88;;
14599;SDS011;7386;45.586;12.854;2023-06-10T06:36:09;17.55;;;14.27;;
14599;SDS011;7386;45.586;12.854;2023-06-10T06:38:37;18.15;;;14.57;;
14599;SDS011;7386;45.586;12.854;2023-06-10T06:41:06;12.52;;;11.07;;
14599;SDS011;7386;45.586;12.854;2023-06-10T06:43:34;10.98;;;9.88;;
14599;SDS011;7386;45.586;12.854;2023-06-10T06:46:03;7.85;;;7.05;;
14599;SDS011;7386;45.586;12.854;2023-06-10T06:48:31;6.97;;;6.28;;
14599;SDS011;7386;45.586;12.854;2023-06-10T06:51:01;7.53;;;6.72;;
14599;SDS011;7386;45.586;12.854;2023-06-10T06:53:30;7.55;;;6.85;;
14599;SDS011;7386;45.586;12.854;2023-06-10T06:55:58;9.18;;;6.45;;
14599;SDS011;7386;45.586;12.854;2023-06-10T06:58:27;7.10;;;6.38;;
14599;SDS011;7386;45.586;12.854;2023-06-10T07:00:55;8.43;;;7.60;;
14599;SDS011;7386;45.586;12.854;2023-06-10T07:03:24;8.20;;;7.40;;
14599;SDS011;7386;45.586;12.854;2023-06-10T07:05:52;8.85;;;7.95;;
14599;SDS011;7386;45.586;12.854;2023-06-10T07:08:22;8.57;;;7.68;;
14599;SDS011;7386;45.586;12.854;2023-06-10T07:10:51;12.93;;;11.52;;
14599;SDS011;7386;45.586;12.854;2023-06-10T07:13:19;24.63;;;12.63;;
14599;SDS011;7386;45.586;12.854;2023-06-10T07:15:48;29.95;;;11.90;;
14599;SDS011;7386;45.586;12.854;2023-06-10T07:18:16;21.92;;;11.38;;
14599;SDS011;7386;45.586;12.854;2023-06-10T07:20:45;26.00;;;10.85;;
14599;SDS011;7386;45.586;12.854;2023-06-10T07:23:14;18.13;;;9.57;;
14599;SDS011;7386;45.586;12.854;2023-06-10T07:25:43;16.42;;;10.48;;
14599;SDS011;7386;45.586;12.854;2023-06-10T07:28:12;17.52;;;14.85;;
14599;SDS011;7386;45.586;12.854;2023-06-10T07:30:40;17.42;;;14.55;;
14599;SDS011;7386;45.586;12.854;2023-06-10T07:33:09;15.20;;;12.68;;
14599;SDS011;7386;45.586;12.854;2023-06-10T07:35:37;13.10;;;11.80;;
14599;SDS011;7386;45.586;12.854;2023-06-10T07:38:06;12.32;;;10.15;;
14599;SDS011;7386;45.586;12.854;2023-06-10T07:40:34;17.90;;;15.95;;
14599;SDS011;7386;45.586;12.854;2023-06-10T07:43:04;20.65;;;18.45;;
14599;SDS011;7386;45.586;12.854;2023-06-10T07:45:33;15.00;;;13.45;;
14599;SDS011;7386;45.586;12.854;2023-06-10T07:48:01;12.25;;;10.98;;
14599;SDS011;7386;45.586;12.854;2023-06-10T07:50:30;12.65;;;10.80;;
14599;SDS011;7386;45.586;12.854;2023-06-10T07:52:59;15.00;;;12.38;;
14599;SDS011;7386;45.586;12.854;2023-06-10T07:55:27;20.00;;;17.67;;
14599;SDS011;7386;45.586;12.854;2023-06-10T07:57:56;21.10;;;19.00;;
14599;SDS011;7386;45.586;12.854;2023-06-10T08:00:26;16.63;;;14.23;;
14599;SDS011;7386;45.586;12.854;2023-06-10T08:02:54;13.43;;;12.02;;
14599;SDS011;7386;45.586;12.854;2023-06-10T08:05:23;12.27;;;10.98;;
14599;SDS011;7386;45.586;12.854;2023-06-10T08:07:52;10.82;;;9.75;;
14599;SDS011;7386;45.586;12.854;2023-06-10T08:10:21;11.98;;;10.00;;
14599;SDS011;7386;45.586;12.854;2023-06-10T08:12:50;11.10;;;10.00;;
14599;SDS011;7386;45.586;12.854;2023-06-10T08:15:18;15.15;;;13.07;;
14599;SDS011;7386;45.586;12.854;2023-06-10T08:17:48;11.98;;;10.45;;
14599;SDS011;7386;45.586;12.854;2023-06-10T08:20:17;11.68;;;9.50;;
14599;SDS011;7386;45.586;12.854;2023-06-10T08:22:48;19.23;;;17.23;;
14599;SDS011;7386;45.586;12.854;2023-06-10T08:25:17;15.18;;;13.13;;
14599;SDS011;7386;45.586;12.854;2023-06-10T08:27:47;12.30;;;11.02;;
14599;SDS011;7386;45.586;12.854;2023-06-10T08:30:17;11.73;;;10.50;;
14599;SDS011;7386;45.586;12.854;2023-06-10T08:32:45;12.10;;;10.40;;
14599;SDS011;7386;45.586;12.854;2023-06-10T08:35:15;16.00;;;13.85;;
14599;SDS011;7386;45.586;12.854;2023-06-10T08:37:44;17.38;;;14.50;;
14599;SDS011;7386;45.586;12.854;2023-06-10T08:40:12;16.90;;;15.20;;
14599;SDS011;7386;45.586;12.854;2023-06-10T08:42:43;14.60;;;12.30;;
14599;SDS011;7386;45.586;12.854;2023-06-10T08:45:12;13.82;;;12.32;;
14599;SDS011;7386;45.586;12.854;2023-06-10T08:47:44;15.63;;;12.32;;
14599;SDS011;7386;45.586;12.854;2023-06-10T08:50:13;15.68;;;14.00;;
14599;SDS011;7386;45.586;12.854;2023-06-10T08:52:44;15.57;;;13.95;;
14599;SDS011;7386;45.586;12.854;2023-06-10T08:55:17;17.10;;;15.25;;
14599;SDS011;7386;45.586;12.854;2023-06-10T08:57:48;20.02;;;16.80;;
14599;SDS011;7386;45.586;12.854;2023-06-10T09:00:17;22.48;;;19.85;;
14599;SDS011;7386;45.586;12.854;2023-06-10T09:02:46;23.05;;;20.60;;
14599;SDS011;7386;45.586;12.854;2023-06-10T09:05:15;23.17;;;19.92;;
14599;SDS011;7386;45.586;12.854;2023-06-10T09:07:45;23.05;;;20.60;;
14599;SDS011;7386;45.586;12.854;2023-06-10T09:10:14;27.88;;;22.85;;
14599;SDS011;7386;45.586;12.854;2023-06-10T09:12:43;28.25;;;23.75;;
14599;SDS011;7386;45.586;12.854;2023-06-10T09:15:11;28.48;;;24.33;;
14599;SDS011;7386;45.586;12.854;2023-06-10T09:17:41;30.52;;;25.63;;
14599;SDS011;7386;45.586;12.854;2023-06-10T09:20:10;36.03;;;29.17;;
14599;SDS011;7386;45.586;12.854;2023-06-10T09:22:40;34.90;;;28.55;;
14599;SDS011;7386;45.586;12.854;2023-06-10T09:25:11;32.53;;;28.70;;
14599;SDS011;7386;45.586;12.854;2023-06-10T09:27:44;38.92;;;31.58;;
14599;SDS011;7386;45.586;12.854;2023-06-10T09:30:24;39.15;;;31.25;;
14599;SDS011;7386;45.586;12.854;2023-06-10T09:32:54;41.55;;;33.75;;
14599;SDS011;7386;45.586;12.854;2023-06-10T09:35:23;43.67;;;36.20;;
14599;SDS011;7386;45.586;12.854;2023-06-10T09:37:52;43.65;;;35.88;;
14599;SDS011;7386;45.586;12.854;2023-06-10T09:40:22;49.67;;;37.88;;
14599;SDS011;7386;45.586;12.854;2023-06-10T09:42:52;38.20;;;32.88;;
14599;SDS011;7386;45.586;12.854;2023-06-10T09:45:21;41.25;;;32.88;;
14599;SDS011;7386;45.586;12.854;2023-06-10T09:47:53;41.38;;;33.53;;
14599;SDS011;7386;45.586;12.854;2023-06-10T09:50:22;38.55;;;32.33;;
14599;SDS011;7386;45.586;12.854;2023-06-10T09:52:50;41.92;;;34.90;;
14599;SDS011;7386;45.586;12.854;2023-06-10T09:55:19;41.75;;;35.10;;
14599;SDS011;7386;45.586;12.854;2023-06-10T09:57:51;40.55;;;33.78;;
14599;SDS011;7386;45.586;12.854;2023-06-10T10:00:21;51.78;;;41.72;;
14599;SDS011;7386;45.586;12.854;2023-06-10T10:02:52;54.20;;;44.60;;
14599;SDS011;7386;45.586;12.854;2023-06-10T10:05:22;53.80;;;43.08;;
14599;SDS011;7386;45.586;12.854;2023-06-10T10:07:51;56.38;;;45.13;;
14599;SDS011;7386;45.586;12.854;2023-06-10T10:10:20;53.17;;;41.63;;
14599;SDS011;7386;45.586;12.854;2023-06-10T10:12:53;56.75;;;44.15;;
14599;SDS011;7386;45.586;12.854;2023-06-10T10:15:24;60.75;;;49.40;;
14599;SDS011;7386;45.586;12.854;2023-06-10T10:17:56;54.42;;;45.03;;
14599;SDS011;7386;45.586;12.854;2023-06-10T10:20:26;58.72;;;47.03;;
14599;SDS011;7386;45.586;12.854;2023-06-10T10:22:56;67.00;;;51.35;;
14599;SDS011;7386;45.586;12.854;2023-06-10T10:25:27;56.58;;;45.35;;
14599;SDS011;7386;45.586;12.854;2023-06-10T10:27:59;57.35;;;46.33;;
14599;SDS011;7386;45.586;12.854;2023-06-10T10:30:30;63.13;;;50.08;;
14599;SDS011;7386;45.586;12.854;2023-06-10T10:33:04;67.75;;;52.80;;
14599;SDS011;7386;45.586;12.854;2023-06-10T10:35:36;58.83;;;47.85;;
14599;SDS011;7386;45.586;12.854;2023-06-10T10:38:04;59.78;;;48.70;;
14599;SDS011;7386;45.586;12.854;2023-06-10T10:40:33;62.78;;;47.25;;
14599;SDS011;7386;45.586;12.854;2023-06-10T10:43:03;68.97;;;52.97;;
14599;SDS011;7386;45.586;12.854;2023-06-10T10:45:33;74.28;;;54.80;;
14599;SDS011;7386;45.586;12.854;2023-06-10T10:48:04;65.95;;;53.17;;
14599;SDS011;7386;45.586;12.854;2023-06-10T10:50:34;55.78;;;46.67;;
14599;SDS011;7386;45.586;12.854;2023-06-10T10:53:03;56.10;;;43.50;;
14599;SDS011;7386;45.586;12.854;2023-06-10T10:55:32;68.15;;;52.28;;
14599;SDS011;7386;45.586;12.854;2023-06-10T10:58:04;59.60;;;46.97;;
14599;SDS011;7386;45.586;12.854;2023-06-10T11:00:33;61.10;;;46.97;;
14599;SDS011;7386;45.586;12.854;2023-06-10T11:03:05;76.95;;;58.47;;
14599;SDS011;7386;45.586;12.854;2023-06-10T11:05:38;50.70;;;40.70;;
14599;SDS011;7386;45.586;12.854;2023-06-10T11:08:08;58.13;;;44.10;;
14599;SDS011;7386;45.586;12.854;2023-06-10T11:10:36;68.30;;;53.55;;
14599;SDS011;7386;45.586;12.854;2023-06-10T11:13:07;67.28;;;51.97;;
14599;SDS011;7386;45.586;12.854;2023-06-10T11:15:39;68.07;;;51.75;;
14599;SDS011;7386;45.586;12.854;2023-06-10T11:18:12;76.70;;;56.80;;
14599;SDS011;7386;45.586;12.854;2023-06-10T11:20:42;85.82;;;64.97;;
14599;SDS011;7386;45.586;12.854;2023-06-10T11:23:10;81.07;;;59.67;;
14599;SDS011;7386;45.586;12.854;2023-06-10T11:28:37;73.20;;;56.58;;
14599;SDS011;7386;45.586;12.854;2023-06-10T11:31:06;70.95;;;53.30;;
14599;SDS011;7386;45.586;12.854;2023-06-10T11:33:36;76.28;;;57.35;;
14599;SDS011;7386;45.586;12.854;2023-06-10T11:36:07;84.65;;;63.03;;
14599;SDS011;7386;45.586;12.854;2023-06-10T11:38:35;97.35;;;74.07;;
14599;SDS011;7386;45.586;12.854;2023-06-10T11:41:04;83.13;;;61.25;;
14599;SDS011;7386;45.586;12.854;2023-06-10T11:43:32;86.13;;;66.10;;
14599;SDS011;7386;45.586;12.854;2023-06-10T11:46:02;61.97;;;48.30;;
14599;SDS011;7386;45.586;12.854;2023-06-10T11:48:31;82.47;;;62.10;;
14599;SDS011;7386;45.586;12.854;2023-06-10T11:51:00;95.07;;;69.22;;
14599;SDS011;7386;45.586;12.854;2023-06-10T11:53:28;101.63;;;74.07;;
14599;SDS011;7386;45.586;12.854;2023-06-10T11:55:57;90.13;;;66.80;;
14599;SDS011;7386;45.586;12.854;2023-06-10T11:58:25;101.53;;;72.03;;
14599;SDS011;7386;45.586;12.854;2023-06-10T12:00:54;88.20;;;63.42;;
14599;SDS011;7386;45.586;12.854;2023-06-10T12:03:25;91.32;;;67.00;;
14599;SDS011;7386;45.586;12.854;2023-06-10T12:05:55;102.93;;;74.88;;
14599;SDS011;7386;45.586;12.854;2023-06-10T12:08:24;101.80;;;73.75;;
14599;SDS011;7386;45.586;12.854;2023-06-10T12:10:52;84.15;;;64.13;;
14599;SDS011;7386;45.586;12.854;2023-06-10T12:13:21;99.45;;;75.18;;
14599;SDS011;7386;45.586;12.854;2023-06-10T12:15:50;89.32;;;65.93;;
14599;SDS011;7386;45.586;12.854;2023-06-10T12:18:19;89.97;;;68.28;;
14599;SDS011;7386;45.586;12.854;2023-06-10T12:20:49;109.05;;;81.28;;
14599;SDS011;7386;45.586;12.854;2023-06-10T12:23:18;78.47;;;60.22;;
14599;SDS011;7386;45.586;12.854;2023-06-10T12:25:49;95.22;;;71.65;;
14599;SDS011;7386;45.586;12.854;2023-06-10T12:28:20;114.18;;;82.82;;
14599;SDS011;7386;45.586;12.854;2023-06-10T12:30:49;84.72;;;64.10;;
14599;SDS011;7386;45.586;12.854;2023-06-10T12:33:18;108.25;;;81.55;;
14599;SDS011;7386;45.586;12.854;2023-06-10T12:35:47;109.60;;;79.88;;
14599;SDS011;7386;45.586;12.854;2023-06-10T12:38:22;101.80;;;75.95;;
14599;SDS011;7386;45.586;12.854;2023-06-10T12:40:53;118.15;;;87.07;;
14599;SDS011;7386;45.586;12.854;2023-06-10T12:43:23;98.00;;;72.85;;
14599;SDS011;7386;45.586;12.854;2023-06-10T12:45:52;102.65;;;77.80;;
14599;SDS011;7386;45.586;12.854;2023-06-10T12:48:21;116.47;;;85.13;;
14599;SDS011;7386;45.586;12.854;2023-06-10T12:50:53;82.75;;;62.42;;
14599;SDS011;7386;45.586;12.854;2023-06-10T12:53:23;88.68;;;66.05;;
14599;SDS011;7386;45.586;12.854;2023-06-10T12:55:53;99.60;;;74.30;;
14599;SDS011;7386;45.586;12.854;2023-06-10T12:58:22;107.43;;;78.53;;
14599;SDS011;7386;45.586;12.854;2023-06-10T13:00:50;68.25;;;52.28;;
14599;SDS011;7386;45.586;12.854;2023-06-10T13:03:19;88.70;;;64.78;;
14599;SDS011;7386;45.586;12.854;2023-06-10T13:05:48;94.90;;;72.85;;
14599;SDS011;7386;45.586;12.854;2023-06-10T13:08:16;57.38;;;45.20;;
14599;SDS011;7386;45.586;12.854;2023-06-10T13:10:46;46.97;;;36.67;;
14599;SDS011;7386;45.586;12.854;2023-06-10T13:13:15;77.05;;;56.65;;
14599;SDS011;7386;45.586;12.854;2023-06-10T13:15:44;54.85;;;41.83;;
14599;SDS011;7386;45.586;12.854;2023-06-10T13:18:12;59.40;;;43.67;;
14599;SDS011;7386;45.586;12.854;2023-06-10T13:20:41;92.30;;;67.00;;
14599;SDS011;7386;45.586;12.854;2023-06-10T13:23:09;69.72;;;51.47;;
14599;SDS011;7386;45.586;12.854;2023-06-10T13:25:38;55.90;;;45.28;;
14599;SDS011;7386;45.586;12.854;2023-06-10T13:28:08;83.47;;;61.50;;
14599;SDS011;7386;45.586;12.854;2023-06-10T13:30:37;86.47;;;62.17;;
14599;SDS011;7386;45.586;12.854;2023-06-10T13:33:06;47.03;;;37.28;;
14599;SDS011;7386;45.586;12.854;2023-06-10T13:35:34;49.83;;;39.20;;
14599;SDS011;7386;45.586;12.854;2023-06-10T13:38:03;71.90;;;52.35;;
14599;SDS011;7386;45.586;12.854;2023-06-10T13:40:33;56.03;;;43.75;;
14599;SDS011;7386;45.586;12.854;2023-06-10T13:43:02;64.93;;;49.10;;
14599;SDS011;7386;45.586;12.854;2023-06-10T13:45:32;65.15;;;48.85;;
14599;SDS011;7386;45.586;12.854;2023-06-10T13:48:00;47.10;;;36.28;;
14599;SDS011;7386;45.586;12.854;2023-06-10T13:50:30;56.72;;;41.65;;
14599;SDS011;7386;45.586;12.854;2023-06-10T13:52:59;63.22;;;48.47;;
14599;SDS011;7386;45.586;12.854;2023-06-10T13:55:30;47.78;;;38.30;;
14599;SDS011;7386;45.586;12.854;2023-06-10T13:57:58;30.67;;;24.70;;
14599;SDS011;7386;45.586;12.854;2023-06-10T14:00:27;56.70;;;43.15;;
14599;SDS011;7386;45.586;12.854;2023-06-10T14:02:57;49.67;;;38.67;;
14599;SDS011;7386;45.586;12.854;2023-06-10T14:05:26;31.63;;;24.75;;
14599;SDS011;7386;45.586;12.854;2023-06-10T14:07:57;60.35;;;43.50;;
14599;SDS011;7386;45.586;12.854;2023-06-10T14:10:26;50.38;;;38.38;;
14599;SDS011;7386;45.586;12.854;2023-06-10T14:12:54;42.33;;;32.50;;
14599;SDS011;7386;45.586;12.854;2023-06-10T14:15:23;59.10;;;47.13;;
14599;SDS011;7386;45.586;12.854;2023-06-10T14:17:52;48.63;;;37.88;;
14599;SDS011;7386;45.586;12.854;2023-06-10T14:20:22;34.88;;;29.27;;
14599;SDS011;7386;45.586;12.854;2023-06-10T14:22:52;32.55;;;27.02;;
14599;SDS011;7386;45.586;12.854;2023-06-10T14:25:20;61.22;;;46.50;;
14599;SDS011;7386;45.586;12.854;2023-06-10T14:27:49;50.58;;;38.45;;
14599;SDS011;7386;45.586;12.854;2023-06-10T14:30:17;46.92;;;37.60;;
14599;SDS011;7386;45.586;12.854;2023-06-10T14:32:45;74.70;;;56.20;;
14599;SDS011;7386;45.586;12.854;2023-06-10T14:35:14;55.92;;;43.55;;